Time,TemperatureF,DewpointF,PressureIn,WindDirection,WindDirectionDegrees,WindSpeedMPH,WindSpeedGustMPH,Humidity,HourlyPrecipIn,Conditions,Clouds,dailyrainin,SoftwareType,DateUTC
2013-08-20 00:30:00,55.9,55.6,29.78,SW,225,0.0,-999.0,99,-99.99,,,0.00,Acu-Link.com,2013-08-20 04:30:00,
2013-08-20 00:47:00,55.6,55.3,29.81,West,270,0.0,-999.0,99,-99.99,,,0.00,Acu-Link.com,2013-08-20 04:47:00,
2013-08-20 01:23:00,54.5,54.2,29.80,WSW,247,0.0,-999.0,99,-99.99,,,0.00,Acu-Link.com,2013-08-20 05:23:00,
2013-08-20 01:43:00,54.1,53.8,29.80,WSW,247,0.0,-999.0,99,-99.99,,,0.00,Acu-Link.com,2013-08-20 05:43:00,
2013-08-20 02:02:00,53.6,53.3,29.84,NW,315,0.0,-999.0,99,-99.99,,,0.00,Acu-Link.com,2013-08-20 06:02:00,
2013-08-20 02:18:00,53.4,53.1,29.83,West,270,0.0,-999.0,99,-99.99,,,0.00,Acu-Link.com,2013-08-20 06:18:00,
2013-08-20 02:34:00,53.1,52.8,29.82,West,270,0.0,-999.0,99,-99.99,,,0.00,Acu-Link.com,2013-08-20 06:34:00,
2013-08-20 03:02:00,52.9,52.6,29.84,West,270,0.0,-999.0,99,-99.99,,,0.00,Acu-Link.com,2013-08-20 07:02:00,
2013-08-20 03:18:00,52.2,51.9,29.82,SW,225,0.0,-999.0,99,-99.99,,,0.00,Acu-Link.com,2013-08-20 07:18:00,
2013-08-20 03:42:00,52.2,51.9,29.81,SW,225,0.0,-999.0,99,-99.99,,,0.00,Acu-Link.com,2013-08-20 07:42:00,
2013-08-20 03:59:00,51.4,51.1,29.81,SSW,202,0.0,-999.0,99,-99.99,,,0.00,Acu-Link.com,2013-08-20 07:59:00,
2013-08-20 04:16:00,51.3,51.0,29.82,SW,225,0.0,-999.0,99,-99.99,,,0.00,Acu-Link.com,2013-08-20 08:16:00,
2013-08-20 04:31:00,51.1,50.8,29.81,SW,225,0.0,-999.0,99,-99.99,,,0.00,Acu-Link.com,2013-08-20 08:31:00,
2013-08-20 04:52:00,50.9,50.6,29.81,SSW,202,0.0,-999.0,99,-99.99,,,0.00,Acu-Link.com,2013-08-20 08:52:00,
2013-08-20 05:09:00,50.5,50.2,29.82,SW,225,0.0,-999.0,99,-99.99,,,0.00,Acu-Link.com,2013-08-20 09:09:00,
2013-08-20 05:32:00,50.2,49.9,29.85,WSW,247,0.0,-999.0,99,-99.99,,,0.00,Acu-Link.com,2013-08-20 09:32:00,
2013-08-20 05:50:00,50.0,49.7,29.84,West,270,0.0,-999.0,99,-99.99,,,0.00,Acu-Link.com,2013-08-20 09:50:00,
2013-08-20 06:06:00,49.8,49.5,29.86,WSW,247,0.0,-999.0,99,-99.99,,,0.00,Acu-Link.com,2013-08-20 10:06:00,
2013-08-20 06:26:00,49.6,49.3,29.89,WNW,292,0.0,-999.0,99,-99.99,,,0.00,Acu-Link.com,2013-08-20 10:26:00,
2013-08-20 06:41:00,49.8,49.5,29.85,West,270,0.0,-999.0,99,-99.99,,,0.00,Acu-Link.com,2013-08-20 10:41:00,
2013-08-20 06:56:00,50.7,50.4,29.87,West,270,0.0,-999.0,99,-99.99,,,0.00,Acu-Link.com,2013-08-20 10:56:00,
2013-08-20 07:11:00,52.0,51.7,29.85,West,270,0.0,-999.0,99,-99.99,,,0.00,Acu-Link.com,2013-08-20 11:11:00,
2013-08-20 07:32:00,53.2,52.9,29.86,SSW,202,0.0,-999.0,99,-99.99,,,0.00,Acu-Link.com,2013-08-20 11:32:00,
2013-08-20 07:48:00,55.8,55.5,29.86,West,270,0.0,-999.0,99,-99.99,,,0.00,Acu-Link.com,2013-08-20 11:48:00,
2013-08-20 08:17:00,55.8,55.5,29.87,West,270,0.0,-999.0,99,-99.99,,,0.00,Acu-Link.com,2013-08-20 12:17:00,
2013-08-20 08:35:00,61.0,59.6,29.86,WSW,247,0.0,-999.0,95,-99.99,,,0.00,Acu-Link.com,2013-08-20 12:35:00,
2013-08-20 08:51:00,65.1,61.8,29.85,NE,45,0.0,-999.0,89,-99.99,,,0.00,Acu-Link.com,2013-08-20 12:51:00,
2013-08-20 09:06:00,65.1,61.8,29.85,North,0,0.0,-999.0,89,-99.99,,,0.00,Acu-Link.com,2013-08-20 13:06:00,
2013-08-20 09:25:00,69.4,63.3,29.87,NNE,22,1.7,-999.0,81,-99.99,,,0.00,Acu-Link.com,2013-08-20 13:25:00,
2013-08-20 09:40:00,70.2,63.0,29.85,West,270,0.0,-999.0,78,-99.99,,,0.00,Acu-Link.com,2013-08-20 13:40:00,
2013-08-20 10:08:00,74.3,63.9,29.88,West,270,3.2,-999.0,70,-99.99,,,0.00,Acu-Link.com,2013-08-20 14:08:00,
2013-08-20 10:25:00,74.1,64.1,29.85,NW,315,2.7,-999.0,71,-99.99,,,0.00,Acu-Link.com,2013-08-20 14:25:00,
2013-08-20 11:10:00,74.1,64.1,29.85,West,270,2.2,-999.0,71,-99.99,,,0.00,Acu-Link.com,2013-08-20 15:10:00,